Hauptseite
METAR-TAF:

METAR-TAF

Flughäfen :

Heringsdorf, Deutschland

Flughafen Heringsdorf

Breite: 53-53N, Länge: 014-09E, Höhe: 28 m

Beobachtung

Neuester Wetterbericht von vor 7 Stunden und 19 Minuten, um 16:50 UTC
Wind 6 kt aus Nordost, variierte zwischen Nord und Ost
Temperatur 17°C
Luftfeuchtigkeit 59%
Luftdruck 1011 hPa
Sichtweite 10 km oder mehr
keine Wolken unter 1500 m und keine Kumulonimbus oder Gewitterwolken

METAR: EDAH 271650Z 04006KT 010V090 CAVOK 17/09 Q1011

Zeit: 02:09 (00:09 UTC)

Prognose

Neuester Wetterbericht von vor 7 Stunden und 9 Minuten, um 17:00 UTC
Gültige Prognose vom 27 um 18 UTC bis 28 um 03 UTC
Wind 8 kt aus Ost/Nordost
Sichtweite 10 km oder mehr
keine Wolken unter 1500 m und keine Kumulonimbus oder Gewitterwolken

TAF: EDAH 271700Z 2718/2803 07008KT CAVOK

Wetterbeobachtungen und Prognosen von mehr als 4000 Flughäfen (METAR und TAF Bericht).

Die verfügbaren Stationen werden durch gelbe und rote Markierungen auf der Karte dargestellt.

Führen Sie die Maus auf sie, um den Namen der Station zu sehen.

Darauf klicken, um die Beobachtung von Wetterbeobachtungen und Prognosen zu sehen.

Um die Karte zu ändern : klicken Sie auf den grünen Tasten mit einem schwarzen Kreuz Zum Vergrößern, auf den grünen Button mit einem Gedankenstrich zu verkleinern, oder auf die grünen Pfeile für benachbarte Karten.


METAR-TAF: